Flight Track Log - Related Links

Times and Time Zones

All times are in EDT time to prevent confusion due to time zone crossing. See the SWA127 flight status page for this flight to view local times or setup timezone preferences in your user account.

Time Position Orientation Groundspeed Altitude Reporting Facility
EDT Latitude Longitude Course Direction KTS MPH feet Rate Location/Type
Sat 10:55:31 AM 26.5217 -81.8967 344° North 231 266 5,300  Level Miami Center
Sat 10:56:31 AM 26.5983 -81.9139 349° North 224 258 8,500 2,700 Climbing Miami Center
Sat 10:57:31 AM 26.6819 -81.9153 359° North 248 285 10,700 2,400 Climbing Miami Center
Sat 10:58:31 AM 26.7786 -81.8939 11° North 284 327 13,300 3,000 Climbing Miami Center
Sat 10:59:00 AM 27.3060 -81.8303 346° North  Level FlightAware Approximate
Sat 10:59:31 AM 26.8683 -81.8394 28° Northeast 328 377 16,700  Level Miami Center
Sat 11:00:00 AM 27.4275 -81.8814 344° North  Level FlightAware Approximate
Sat 11:00:31 AM 26.9600 -81.7806 30° Northeast 347 399 16,900  Level Miami Center
Sat 11:01:31 AM 27.0506 -81.7564 13° North 360 414 19,300 2,800 Climbing Miami Center
Sat 11:02:31 AM 27.1703 -81.7942 344° North 355 409 22,500 2,579 Climbing Miami Center
Sat 11:03:32 AM 27.2672 -81.8264 344° North 375 432 24,500 1,950 Climbing Miami Center
Sat 11:04:31 AM 27.3811 -81.8592 346° North 404 465 26,400 1,966 Climbing Miami Center
Sat 11:05:31 AM 27.5119 -81.8111 18° North 426 490 28,400 1,700 Climbing Miami Center
Sat 11:06:31 AM 27.6350 -81.7578 21° North 440 506 29,800 1,350 Climbing Miami Center
Sat 11:07:31 AM 27.7619 -81.7022 21° North 463 533 31,100 1,400 Climbing Miami Center
Sat 11:08:31 AM 27.8933 -81.6422 22° Northeast 487 560 32,600 1,600 Climbing Miami Center
Sat 11:09:31 AM 28.0206 -81.5817 23° Northeast 494 568 34,300 1,500 Climbing Miami Center
Sat 11:11:03 AM 28.2092 -81.4889 23° Northeast 507 583 36,400 1,500 Climbing Jacksonville Center
Sat 11:12:03 AM 28.3358 -81.4353 20° North 502 578 38,100 1,250 Climbing Jacksonville Center
Sat 11:13:03 AM 28.4622 -81.3767 22° Northeast 497 572 38,900 450 Climbing Jacksonville Center
Sat 11:14:03 AM 28.5956 -81.3439 12° North 492 566 39,000 50 Climbing Jacksonville Center
Sat 11:15:04 AM 28.7272 -81.3561 355° North 466 536 39,000  Level Jacksonville Center
Sat 11:16:03 AM 28.8608 -81.3658 356° North 466 536 39,000  Level Jacksonville Center
Sat 11:17:03 AM 28.9947 -81.3803 355° North 478 550 39,000  Level Jacksonville Center
Sat 11:18:03 AM 29.1283 -81.3925 355° North 483 556 39,000  Level Jacksonville Center
Sat 11:19:03 AM 29.2600 -81.4025 356° North 478 550 39,000  Level Jacksonville Center
Sat 11:20:03 AM 29.3936 -81.4194 354° North 478 550 39,000  Level Jacksonville Center
Sat 11:21:03 AM 29.5253 -81.4319 355° North 478 550 39,000  Level Jacksonville Center
Sat 11:22:03 AM 29.6569 -81.4442 355° North 478 550 39,000  Level Jacksonville Center
Sat 11:23:03 AM 29.7908 -81.4567 355° North 478 550 39,000  Level Jacksonville Center
Sat 11:24:03 AM 29.9225 -81.4714 354° North 478 550 39,000  Level Jacksonville Center
Sat 11:25:03 AM 30.0728 -81.4669 North 478 550 39,000  Level Jacksonville Center
Sat 11:26:03 AM 30.2061 -81.4506 North 478 550 39,000  Level Jacksonville Center
Sat 11:27:03 AM 30.3439 -81.4339 North 478 550 39,000  Level Jacksonville Center
Sat 11:28:03 AM 30.4772 -81.4150 North 478 550 39,000  Level Jacksonville Center
Sat 11:29:03 AM 30.6128 -81.3986 North 484 557 39,000  Level Jacksonville Center
Sat 11:30:03 AM 30.7442 -81.3819 North 469 540 39,000  Level Jacksonville Center
Sat 11:31:03 AM 30.8753 -81.3678 North 469 540 39,000  Level Jacksonville Center
Sat 11:32:03 AM 31.0089 -81.3486 North 469 540 39,000  Level Jacksonville Center
Sat 11:33:03 AM 31.1422 -81.3319 North 474 545 39,000  Level Jacksonville Center
Sat 11:34:04 AM 31.2778 -81.3175 North 480 552 39,000  Level Jacksonville Center
Sat 11:35:03 AM 31.3878 -81.2594 24° Northeast 472 543 39,000  Level Jacksonville Center
Sat 11:36:03 AM 31.5139 -81.1647 33° Northeast 478 550 39,000  Level Jacksonville Center
Sat 11:37:03 AM 31.6317 -81.0772 32° Northeast 493 567 39,000  Level Jacksonville Center
Sat 11:38:03 AM 31.7369 -80.9994 32° Northeast 493 567 39,000  Level Jacksonville Center
Sat 11:39:03 AM 31.8608 -80.9039 33° Northeast 494 568 39,000  Level Jacksonville Center
Sat 11:40:04 AM 31.9658 -80.8233 33° Northeast 494 568 39,000  Level Jacksonville Center
Sat 11:41:03 AM 32.0958 -80.7272 32° Northeast 494 568 39,000  Level Jacksonville Center
Sat 11:42:03 AM 32.2111 -80.6386 33° Northeast 494 568 39,000  Level Jacksonville Center
Sat 11:43:03 AM 32.3286 -80.5494 33° Northeast 494 568 39,000  Level Jacksonville Center
Sat 11:44:03 AM 32.4458 -80.4603 33° Northeast 494 568 39,000  Level Jacksonville Center
Sat 11:45:03 AM 32.5589 -80.3711 34° Northeast 494 568 39,000  Level Jacksonville Center
Sat 11:46:04 AM 32.6781 -80.2789 33° Northeast 494 568 39,000  Level Jacksonville Center
Sat 11:47:03 AM 32.7931 -80.1892 33° Northeast 494 568 39,000  Level Jacksonville Center
Sat 11:48:03 AM 32.8997 -80.1042 34° Northeast 502 578 39,000  Level Jacksonville Center
Sat 11:49:03 AM 33.0189 -80.0114 33° Northeast 507 583 39,000  Level Jacksonville Center
Sat 11:50:03 AM 33.1378 -79.9208 33° Northeast 507 583 39,000  Level Jacksonville Center
Sat 11:51:03 AM 33.2567 -79.8300 33° Northeast 507 583 39,000  Level Jacksonville Center
Sat 11:52:04 AM 33.3714 -79.7389 34° Northeast 501 577 39,000  Level Jacksonville Center
Sat 11:53:03 AM 33.4878 -79.6450 34° Northeast 496 571 39,000  Level Jacksonville Center
Sat 11:54:03 AM 33.6044 -79.5561 32° Northeast 496 571 39,000  Level Jacksonville Center
Sat 11:55:03 AM 33.7231 -79.4617 34° Northeast 496 571 39,000  Level Jacksonville Center
Sat 11:56:03 AM 33.8353 -79.3722 33° Northeast 491 565 39,000  Level Jacksonville Center
Sat 11:57:03 AM 33.9536 -79.2775 34° Northeast 496 571 39,000  Level Jacksonville Center
Sat 11:59:11 AM 34.2131 -79.0700 33° Northeast 511 588 39,000  Level Washington Center
Sat 12:00:11 PM 34.3325 -78.9769 33° Northeast 506 582 39,000  Level Washington Center
Sat 12:01:11 PM 34.4519 -78.8886 31° Northeast 506 582 39,000  Level Washington Center
Sat 12:02:11 PM 34.5692 -78.7950 33° Northeast 506 582 39,000  Level Washington Center
Sat 12:03:11 PM 34.6928 -78.7014 32° Northeast 514 592 39,000  Level Washington Center
Sat 12:04:11 PM 34.8011 -78.6169 33° Northeast 514 592 39,000  Level Washington Center
Sat 12:05:11 PM 34.9203 -78.5278 32° Northeast 509 586 39,000  Level Washington Center
Sat 12:06:11 PM 35.0372 -78.4356 33° Northeast 509 586 39,000  Level Washington Center
Sat 12:07:11 PM 35.1583 -78.3408 33° Northeast 514 592 39,000  Level Washington Center
Sat 12:08:12 PM 35.2772 -78.2508 32° Northeast 514 592 39,000  Level Washington Center
Sat 12:09:11 PM 35.3983 -78.1581 32° Northeast 514 592 39,000  Level Washington Center
Sat 12:10:11 PM 35.5192 -78.0622 33° Northeast 514 592 39,000  Level Washington Center
Sat 12:11:12 PM 35.6381 -77.9689 33° Northeast 509 586 39,000  Level Washington Center
Sat 12:12:11 PM 35.7586 -77.8753 32° Northeast 509 586 39,000  Level Washington Center
Sat 12:13:11 PM 35.8794 -77.7839 31° Northeast 509 586 39,000  Level Washington Center
Sat 12:14:11 PM 35.9981 -77.6869 33° Northeast 509 586 39,000 -50 Level Washington Center
Sat 12:15:11 PM 36.1125 -77.5819 37° Northeast 514 592 38,900 -650 Descending Washington Center
Sat 12:16:11 PM 36.2353 -77.4614 38° Northeast 514 592 37,700 -950 Descending Washington Center
Sat 12:17:11 PM 36.3558 -77.3536 36° Northeast 514 592 37,000 -350 Descending Washington Center
Sat 12:18:11 PM 36.4744 -77.2372 38° Northeast 525 604 37,000  Level Washington Center
Sat 12:19:11 PM 36.5969 -77.1236 37° Northeast 537 618 37,000  Level Washington Center
Sat 12:20:11 PM 36.7153 -77.0092 38° Northeast 537 618 37,000  Level Washington Center
Sat 12:21:11 PM 36.8394 -76.9000 35° Northeast 537 618 37,000  Level Washington Center
Sat 12:22:11 PM 36.9617 -76.7875 36° Northeast 537 618 37,000  Level Washington Center
Sat 12:23:11 PM 37.0858 -76.6750 36° Northeast 543 625 37,000  Level Washington Center
Sat 12:24:11 PM 37.1972 -76.5722 36° Northeast 549 632 37,000  Level Washington Center
Sat 12:25:11 PM 37.3192 -76.4614 36° Northeast 549 632 37,000 -200 Level Washington Center
Sat 12:26:11 PM 37.4386 -76.3531 36° Northeast 549 632 36,600 -950 Descending Washington Center
Sat 12:27:11 PM 37.5583 -76.2414 36° Northeast 544 626 35,100 -793 Descending Washington Center
Sat 12:28:12 PM 37.6903 -76.1325 33° Northeast 528 608 35,000 -50 Descending Washington Center
Sat 12:29:12 PM 37.7908 -76.0281 39° Northeast 517 595 35,000  Level Washington Center
Sat 12:30:11 PM 37.9078 -75.9233 35° Northeast 517 595 35,000  Level Washington Center
Sat 12:31:11 PM 38.0375 -75.8081 35° Northeast 517 595 35,000  Level Washington Center
Sat 12:32:11 PM 38.1356 -75.7025 40° Northeast 517 595 35,000  Level Washington Center
Sat 12:33:11 PM 38.2525 -75.5997 35° Northeast 511 588 35,000  Level Washington Center
Sat 12:34:11 PM 38.3900 -75.4936 31° Northeast 511 588 35,000  Level Washington Center
Sat 12:35:11 PM 38.5233 -75.4378 18° North 503 579 35,000  Level Washington Center
Sat 12:36:12 PM 38.6608 -75.3789 18° North 503 579 35,000  Level Washington Center
Sat 12:37:12 PM 38.7942 -75.3253 17° North 503 579 35,000  Level Washington Center
Sat 12:38:11 PM 38.9231 -75.2367 28° Northeast 503 579 35,000  Level Washington Center
Sat 12:39:11 PM 39.0436 -75.1239 36° Northeast 517 595 35,000  Level Washington Center
Sat 12:40:11 PM 39.1619 -75.0189 35° Northeast 517 595 35,000  Level Washington Center
Sat 12:41:11 PM 39.2803 -74.9106 35° Northeast 524 603 35,000  Level Washington Center
Sat 12:42:11 PM 39.4025 -74.8019 34° Northeast 524 603 35,000  Level Washington Center
Sat 12:44:12 PM 39.6328 -74.5906 35° Northeast 542 624 35,000  Level New York Center
Sat 12:45:10 PM 39.7403 -74.4911 35° Northeast 529 609 35,000  Level New York Center
Sat 12:46:10 PM 39.8731 -74.3708 35° Northeast 529 609 35,000  Level New York Center
Sat 12:47:11 PM 39.9911 -74.2606 36° Northeast 529 609 35,000  Level New York Center
Sat 12:48:11 PM 40.1089 -74.1497 36° Northeast 529 609 35,000  Level New York Center
Sat 12:49:12 PM 40.2247 -74.0411 36° Northeast 524 603 35,000 -403 Level New York Center
Sat 12:50:10 PM 40.3444 -73.9297 35° Northeast 519 597 34,200 -1,888 Descending New York Center
Sat 12:52:10 PM 40.5781 -73.7133 35° Northeast 519 597 29,400 -2,300 Descending Boston Center
Sat 12:53:10 PM 40.6875 -73.6033 37° Northeast 506 582 27,300 -2,132 Descending Boston Center
Sat 12:54:11 PM 40.7864 -73.5064 37° Northeast 499 574 25,100 -1,686 Descending Boston Center
Sat 12:55:11 PM 40.8875 -73.3956 40° Northeast 488 562 23,900 -555 Descending Boston Center
Sat 12:56:10 PM 40.9822 -73.2622 47° Northeast 465 535 24,000 50 Climbing Boston Center
Sat 12:57:10 PM 41.0686 -73.1339 48° Northeast 458 527 24,000 -298 Level Boston Center
Sat 12:58:11 PM 41.1464 -72.9969 53° Northeast 458 527 23,400 -496 Descending Boston Center
Sat 12:59:11 PM 41.2033 -72.8456 63° Northeast 458 527 23,000 -198 Descending Boston Center
Sat 01:00:12 PM 41.2600 -72.6914 64° Northeast 453 521 23,000  Level Boston Center
Sat 01:01:12 PM 41.3125 -72.5506 64° Northeast 460 529 23,000  Level Boston Center
Sat 01:02:11 PM 41.3689 -72.3958 64° Northeast 460 529 23,000 -655 Level Boston Center
Sat 01:03:11 PM 41.4311 -72.2325 63° Northeast 454 522 21,700 -1,587 Descending Boston Center
Sat 01:04:12 PM 41.4850 -72.0853 64° Northeast 442 509 19,800 -2,033 Descending Boston Center
Sat 01:05:12 PM 41.5386 -71.9436 63° Northeast 429 494 17,600 -1,983 Descending Boston Center
Sat 01:06:10 PM 41.5839 -71.8211 64° Northeast 417 480 15,900 -1,932 Descending Boston Center
Sat 01:07:10 PM 41.6372 -71.6733 64° Northeast 402 463 13,800 -1,850 Descending Boston Center
Sat 01:08:10 PM 41.6800 -71.5561 64° Northeast 394 453 12,200 -1,273 Descending Boston Center
Sat 01:09:22 PM 41.7350 -71.4108 63° Northeast 372 428 11,000 -545 Descending Boston Center
Sat 01:10:22 PM 41.7986 -71.3067 51° Northeast 333 383 11,000 -344 Level Boston Center
Sat 01:11:24 PM 41.8606 -71.2497 34° Northeast 302 348 10,300 -1,230 Descending Boston Center
Sat 01:12:24 PM 41.9414 -71.2092 20° North 283 326 8,500 -1,636 Descending Boston Center
Sat 01:13:25 PM 42.0058 -71.1772 20° North 276 318 7,000 -1,780 Descending Boston Center
Sat 01:14:22 PM 42.0825 -71.1422 19° North 265 305 5,000 -1,768 Descending Boston Center
Sat 01:15:17 PM 42.1500 -71.1000 25° Northeast 261 300 3,700 -1,043 Descending KA90
Sat 01:16:17 PM 42.2167 -71.0833 10° North 229 264 3,000 -800 Descending KA90
Sat 01:17:17 PM 42.2667 -71.0500 26° Northeast 180 207 2,100 -950 Descending KA90
Sat 01:18:17 PM 42.3000 -71.0333 20° North 167 192 1,100 -900 Descending KA90
Sat 01:19:17 PM 42.3333 -71.0167 20° North 139 160 300 3,194 Descending KA90
Sat 01:21:23 PM 42.4264 -70.9719 20° North 157 181 11,000 3,433 Climbing Boston Center
Sat 01:22:24 PM 42.4678 -70.9511 20° North 157 181 11,000  Level Boston Center
Sat 01:24:00 PM 42.3630 -71.0064 200° South  Level Estimated
Sat 01:31:00 PM 42.3630 -71.0064 200° South  Level Estimated
Sat 01:32:00 PM 42.3630 -71.0064 200° South  Level Estimated
Sat 01:33:00 PM 42.3630 -71.0064 200° South  Level Estimated
Sat 01:34:00 PM 42.3630 -71.0064 200° South  Level Estimated
Sat 01:35:00 PM 42.3630 -71.0064 200° South  Level Estimated

Login

Don't have an account? Register now (free) for customized features, flight alerts, and more!